Weather reports worldwide

Advertisment
Pajala A, Sweden (2095): temperature & dewpoint: 10.12.2019 14:00:00 - 16.12.2019 14:00:00 (CET)Pajala A, Sweden (2095): wind speed & gusts: 10.12.2019 14:00:00 - 16.12.2019 14:00:00 (CET)Pajala A, Sweden (2095): wind direction: 10.12.2019 14:00:00 - 16.12.2019 14:00:00 (CET)Pajala A, Sweden (2095): reduced air pressure: 10.12.2019 14:00:00 - 16.12.2019 14:00:00 (CET)Pajala A, Sweden (2095): precipitation: 10.12.2019 14:00:00 - 16.12.2019 14:00:00 (CET)
Date & Time tt [°C] td [°C] ff [km/h] ff [kn] fx [km/h] fx [kn] dd ppp [hPa] rr [mm]
16.12.2019 14:00:00 - - - - - - - - -
16.12.2019 13:00:00 -2,2 -2,6 3 2 5 3 NNE 994,4 0,3
16.12.2019 12:00:00 -2,0 -2,4 4 2 - - NNE 994,5 0,3
16.12.2019 11:00:00 -1,9 -2,3 4 2 6 3 NNE 994,8 0,5
16.12.2019 10:00:00 -1,9 -2,3 4 2 7 4 NNE 994,9 0,4
16.12.2019 09:00:00 -1,7 -2,1 4 2 8 4 NNE 995,2 0,2
16.12.2019 08:00:00 -1,7 -2,1 4 2 9 5 NE 995,2 0,1
16.12.2019 07:00:00 -1,4 -1,8 4 2 11 6 ENE 995,4 0,0
16.12.2019 06:00:00 -1,5 -1,9 5 3 10 5 ENE 995,5 0,4
16.12.2019 05:00:00 -1,3 -1,7 6 3 11 6 E 995,8 0,4
16.12.2019 04:00:00 -1,3 -1,7 6 3 11 6 E 996,1 0,4
16.12.2019 03:00:00 -1,2 -1,5 6 3 11 6 ENE 996,5 0,4
16.12.2019 02:00:00 -1,1 -1,4 6 3 12 6 ENE 996,6 0,4
16.12.2019 01:00:00 -1,1 -1,4 5 3 10 5 ENE 996,9 0,0
16.12.2019 00:00:00 -1,1 -1,4 6 3 11 6 E 997,2 0,1
15.12.2019 23:00:00 -1,0 -1,3 6 4 12 6 E 997,6 0,3
15.12.2019 22:00:00 -0,8 -1,1 6 4 14 8 E 997,7 0,4
15.12.2019 21:00:00 -0,7 -1,0 7 4 14 7 E 997,7 0,6
15.12.2019 20:00:00 -0,6 -0,9 7 4 14 7 E 997,7 0,3
15.12.2019 19:00:00 -0,5 -0,8 8 4 19 11 ESE 997,7 0,1
15.12.2019 18:00:00 -0,5 -0,8 9 5 17 9 ESE 997,8 0,0
15.12.2019 17:00:00 -0,5 -0,8 8 5 16 8 E 998,0 0,1
15.12.2019 16:00:00 -0,6 -0,9 8 4 14 8 E 998,1 0,6
15.12.2019 15:00:00 -0,7 -1,0 7 4 16 8 E 998,3 0,5
15.12.2019 14:00:00 -0,8 -1,1 7 4 12 7 E 998,6 0,3
15.12.2019 13:00:00 -0,8 -1,1 6 3 11 6 ENE 998,9 0,5
15.12.2019 12:00:00 -0,8 -1,1 6 4 12 7 E 999,2 0,4
15.12.2019 11:00:00 -0,8 -1,1 6 4 14 8 E 999,4 0,2
15.12.2019 10:00:00 -0,8 -1,1 6 4 14 8 E 999,5 0,2
15.12.2019 09:00:00 -0,8 -1,1 7 4 14 7 E 999,6 0,2
15.12.2019 08:00:00 -0,8 -1,1 7 4 16 9 E 999,7 0,1
15.12.2019 07:00:00 -0,7 -1,0 8 4 15 8 ESE 999,8 0,1
15.12.2019 06:00:00 -0,7 -1,0 7 4 13 7 E 999,9 0,3
15.12.2019 05:00:00 -0,7 -1,0 8 4 20 11 E 1000,2 0,5
15.12.2019 04:00:00 -0,5 -1,1 9 5 15 8 E 1000,6 0,0
15.12.2019 03:00:00 -0,4 -1,0 9 5 19 10 ESE 1000,8 0,0
15.12.2019 02:00:00 -0,5 -0,9 9 5 19 10 ESE 1001,0 0,1
15.12.2019 01:00:00 -0,4 -0,8 8 4 - - ESE 1001,2 0,1
15.12.2019 00:00:00 -0,3 -0,7 6 4 16 9 E 1001,5 0,0
14.12.2019 23:00:00 -0,2 -0,6 9 5 20 11 ESE 1001,7 0,0
14.12.2019 22:00:00 -0,1 -0,5 9 5 16 8 ESE 1001,8 0,0
14.12.2019 21:00:00 -0,1 -0,2 9 5 19 10 ESE 1001,9 0,1
14.12.2019 20:00:00 -0,2 -0,3 8 5 18 10 E 1001,9 0,0
14.12.2019 19:00:00 -0,2 -0,5 7 4 14 8 E 1002,0 0,0
14.12.2019 18:00:00 -0,2 -0,5 6 3 17 9 SE 1002,3 0,0
14.12.2019 17:00:00 -0,2 -0,5 11 6 25 13 SE 1002,3 0,0
14.12.2019 16:00:00 -0,3 -0,4 7 4 16 9 ESE 1002,3 0,0
14.12.2019 15:00:00 -0,3 -0,6 9 5 17 9 SSE 1002,2 0,0
14.12.2019 14:00:00 -0,2 -0,3 8 4 18 10 SE 1002,2 0,0
14.12.2019 13:00:00 0,0 -0,1 10 6 20 11 SE 1002,0 0,0
14.12.2019 12:00:00 0,1 0,0 10 5 18 10 SE 1002,0 0,0
14.12.2019 11:00:00 0,1 0,0 9 5 18 10 SE 1002,1 0,1
14.12.2019 10:00:00 0,2 0,1 8 5 15 8 SSE 1001,8 0,0
14.12.2019 09:00:00 0,2 0,1 6 3 13 7 SE 1001,5 0,1
14.12.2019 08:00:00 -0,3 -0,6 3 2 6 3 ESE 1001,3 0,1
14.12.2019 07:00:00 -0,5 -0,9 3 2 11 6 SSE 1000,9 -
14.12.2019 06:00:00 -0,4 -0,8 6 4 16 8 S 1000,6 0,0
14.12.2019 05:00:00 -0,7 -1,3 8 4 19 11 S 1000,3 0,0
14.12.2019 04:00:00 -0,6 -1,0 9 5 16 9 S 999,9 0,0
14.12.2019 03:00:00 -0,7 -1,3 4 2 20 11 S 1000,0 0,0
14.12.2019 02:00:00 -0,5 -1,1 9 5 22 12 S 999,6 0,0
14.12.2019 01:00:00 -0,3 -0,6 7 4 22 12 S 999,5 0,1
14.12.2019 00:00:00 -0,3 -0,6 6 3 16 9 SSE 999,0 0,1
13.12.2019 23:00:00 -0,1 -0,2 9 5 21 12 S 998,7 0,1
13.12.2019 22:00:00 -0,4 -0,7 6 4 18 10 S 998,2 0,2
13.12.2019 21:00:00 -0,8 -1,1 10 5 19 11 S 997,9 0,0
13.12.2019 20:00:00 -1,5 -1,9 9 5 16 9 SSE 997,5 0,0
13.12.2019 19:00:00 -2,2 -2,6 6 3 15 8 SSE 997,2 0,0
13.12.2019 18:00:00 -1,5 -1,9 5 3 16 8 SSE 996,9 0,1
13.12.2019 17:00:00 -0,7 -0,8 10 6 18 10 S 996,4 0,1
13.12.2019 16:00:00 -0,4 -0,5 7 4 19 10 S 996,0 0,1
13.12.2019 15:00:00 -0,3 -0,4 5 3 22 12 S 995,3 0,1
13.12.2019 14:00:00 -0,2 -0,3 10 5 22 12 S 994,9 0,0
13.12.2019 13:00:00 -0,2 -0,5 11 6 20 11 S 994,5 0,0
13.12.2019 12:00:00 -0,3 -0,6 10 6 24 13 S 993,9 0,0
13.12.2019 11:00:00 -0,1 -0,2 13 7 23 12 S 993,4 0,0
13.12.2019 10:00:00 -0,2 -0,3 12 7 22 12 S 993,1 0,0
13.12.2019 09:00:00 0,0 -0,1 10 6 22 12 S 992,8 0,0
13.12.2019 08:00:00 0,0 -0,1 13 7 23 12 S 992,3 0,1
13.12.2019 07:00:00 0,0 -0,1 11 6 22 12 SSE 991,9 0,2
13.12.2019 06:00:00 0,1 0,0 11 6 19 11 SSE 991,7 0,3
13.12.2019 05:00:00 0,2 -0,1 11 6 22 12 SSE 991,7 0,1
13.12.2019 04:00:00 0,3 -0,1 11 6 23 12 SSE 991,9 0,0
13.12.2019 03:00:00 0,5 0,1 11 6 20 11 SSE 992,0 0,0
13.12.2019 02:00:00 0,7 0,4 10 5 24 13 SSE 992,4 0,0
13.12.2019 01:00:00 0,7 0,4 10 5 19 10 SSE 992,7 0,1
13.12.2019 00:00:00 0,5 0,2 11 6 21 11 SSE 992,9 0,1
12.12.2019 23:00:00 0,4 0,1 8 4 15 8 SSE 993,2 0,0
12.12.2019 22:00:00 0,5 0,1 7 4 18 10 SSE 993,4 0,0
12.12.2019 21:00:00 0,7 0,3 11 6 20 11 S 993,6 0,1
12.12.2019 20:00:00 0,5 0,4 8 5 14 8 SSE 993,6 0,1
12.12.2019 19:00:00 0,3 0,2 5 3 17 9 SE 993,8 0,0
12.12.2019 18:00:00 0,5 0,4 10 5 18 10 S 993,9 0,1
12.12.2019 17:00:00 0,4 0,3 8 4 16 9 S 994,3 0,0
12.12.2019 16:00:00 0,2 0,1 8 5 19 10 S 994,6 0,0
12.12.2019 15:00:00 0,0 -0,1 6 4 17 9 S 994,7 0,0
12.12.2019 14:00:00 -0,1 -0,2 6 3 18 10 SSE 994,9 0,0
12.12.2019 13:00:00 -0,3 -0,4 9 5 18 10 S 994,9 0,0
12.12.2019 12:00:00 -0,4 -0,5 8 4 17 9 SSE 995,0 0,0
12.12.2019 11:00:00 -0,6 -0,7 7 4 16 9 SSE 995,1 0,0
12.12.2019 10:00:00 -0,8 -0,9 8 5 21 12 SSE 995,1 0,0
12.12.2019 09:00:00 -0,7 -0,8 10 6 18 10 S 995,4 0,1
12.12.2019 08:00:00 -0,9 -1,0 7 4 13 7 S 994,7 0,1
12.12.2019 07:00:00 -1,0 -1,1 6 4 24 13 SSE 994,7 0,3
12.12.2019 06:00:00 -0,9 -1,0 12 6 23 12 S 994,5 0,1
12.12.2019 05:00:00 -0,8 -0,9 10 6 31 17 S 994,6 0,1
12.12.2019 04:00:00 -0,6 -0,7 14 7 31 17 S 994,5 0,0
12.12.2019 03:00:00 -0,9 -1,2 8 4 23 12 S 994,6 0,0
12.12.2019 02:00:00 -1,6 -1,9 13 7 22 12 S 994,0 0,0
12.12.2019 01:00:00 -2,1 -2,5 11 6 21 11 S 993,5 0,0
12.12.2019 00:00:00 -1,6 -2,0 13 7 25 13 S 993,1 0,0
11.12.2019 23:00:00 -1,7 -2,1 10 6 16 9 S 992,7 0,0
11.12.2019 22:00:00 -1,3 -1,7 7 4 23 12 S 991,6 0,0
11.12.2019 21:00:00 -0,7 -1,1 13 7 26 14 SSW 990,3 0,0
11.12.2019 20:00:00 0,0 -0,1 13 7 31 17 SSW 989,3 0,0
11.12.2019 19:00:00 0,3 0,2 16 9 28 15 S 987,8 0,1
11.12.2019 18:00:00 -0,1 -0,2 10 5 26 14 S 986,8 0,7
11.12.2019 17:00:00 -1,4 -1,7 10 5 22 12 SSE 986,5 0,5
11.12.2019 16:00:00 -2,2 -2,5 11 6 25 13 SSE 986,5 0,9
11.12.2019 15:00:00 -2,7 -3,5 16 9 36 19 SE 987,1 0,3
11.12.2019 14:00:00 -3,0 -4,0 20 11 38 21 SSE 987,9 0,3
11.12.2019 13:00:00 -3,4 -4,5 20 11 46 25 SSE 988,8 0,1
11.12.2019 12:00:00 -3,9 -5,2 22 12 43 23 SE 990,0 0,1
11.12.2019 11:00:00 -4,7 -5,9 21 11 47 25 SE 991,5 0,3
11.12.2019 10:00:00 -5,1 -6,3 19 11 45 24 SE 993,0 0,4
11.12.2019 09:00:00 -5,3 -6,5 22 12 49 26 SE 994,3 0,2
11.12.2019 08:00:00 -6,2 -7,4 18 10 35 19 SE 995,6 0,2
11.12.2019 07:00:00 -8,9 -10,2 11 6 28 15 SE 997,8 0,2
11.12.2019 06:00:00 -10,5 -12,0 11 6 28 15 SE 999,7 0,1
11.12.2019 05:00:00 -11,1 -12,4 10 6 23 13 SE 1001,1 0,0
11.12.2019 04:00:00 -14,3 -15,7 6 3 10 5 E 1002,9 0,0
11.12.2019 03:00:00 -22,9 -25,4 2 1 7 4 NW 1005,1 0,0
11.12.2019 02:00:00 -26,6 -29,6 0 0 5 3 N 1006,2 0,0
11.12.2019 01:00:00 -27,3 -30,2 2 1 4 2 WSW 1006,7 0,2
11.12.2019 00:00:00 -27,5 -30,6 3 1 - - SW 1007,5 0,0
10.12.2019 23:00:00 -27,0 -30,1 0 0 4 2 N 1008,2 0,0
10.12.2019 22:00:00 -27,2 -30,3 3 1 4 2 WSW 1008,3 0,0
10.12.2019 21:00:00 -27,2 -30,3 0 0 4 2 N 1008,4 0,0
10.12.2019 20:00:00 -26,7 -29,6 3 1 4 2 N 1008,4 0,0
10.12.2019 19:00:00 -26,4 -29,4 0 0 4 2 N 1008,2 0,0
10.12.2019 18:00:00 -26,0 -29,0 0 0 3 1 N 1008,5 0,0
10.12.2019 17:00:00 -25,4 -28,4 0 0 5 3 N 1008,4 0,0
10.12.2019 16:00:00 -24,1 -26,8 0 0 4 2 N 1007,9 0,0
10.12.2019 15:00:00 -23,6 -26,5 0 0 8 4 N 1007,5 0,0
10.12.2019 14:00:00 -22,1 -24,7 5 3 10 6 W 1006,9 0,0

tt = temperature
td = dewpoint
ff = wind speed
fx = gusts
dd = wind direction
ppp = reduced air pressure
rr = precipitation

Next stations